createdAt,value
2022-09-17T00:00:49.741Z,11.54
2022-09-17T00:03:16.657Z,11.58
2022-09-17T00:05:43.758Z,11.53
2022-09-17T00:08:14.659Z,11.48
2022-09-17T00:10:44.095Z,11.47
2022-09-17T00:13:11.059Z,11.51
2022-09-17T00:15:45.622Z,11.50
2022-09-17T00:18:13.836Z,11.52
2022-09-17T00:20:45.206Z,11.55
2022-09-17T00:23:12.703Z,11.60
2022-09-17T00:25:44.399Z,11.66
2022-09-17T00:28:12.331Z,11.73
2022-09-17T00:30:43.254Z,11.78
2022-09-17T00:33:12.837Z,11.80
2022-09-17T00:35:44.561Z,11.73
2022-09-17T00:38:11.826Z,11.76
2022-09-17T00:40:39.202Z,11.83
2022-09-17T00:43:11.551Z,11.90
2022-09-17T00:45:40.085Z,11.91
2022-09-17T00:48:06.883Z,12.00
2022-09-17T00:50:37.821Z,11.99
2022-09-17T00:53:21.615Z,11.97
2022-09-17T00:56:09.307Z,11.97
2022-09-17T00:58:40.980Z,11.98
2022-09-17T01:01:08.018Z,12.04
2022-09-17T01:03:34.568Z,12.05
2022-09-17T01:06:17.369Z,11.99
2022-09-17T01:09:01.004Z,12.02
2022-09-17T01:11:59.846Z,11.97
2022-09-17T01:14:45.145Z,12.00
2022-09-17T01:17:29.757Z,11.99
2022-09-17T01:20:36.971Z,11.98
2022-09-17T01:23:15.464Z,12.04
2022-09-17T01:26:14.604Z,12.05
2022-09-17T01:28:47.152Z,12.00
2022-09-17T01:31:20.818Z,12.06
2022-09-17T01:34:05.593Z,12.05
2022-09-17T01:37:11.271Z,12.07
2022-09-17T01:39:44.747Z,12.10
2022-09-17T01:42:44.290Z,12.02
2022-09-17T01:45:16.803Z,12.04
2022-09-17T01:47:59.005Z,12.06
2022-09-17T01:50:38.009Z,12.08
2022-09-17T01:53:06.760Z,11.99
2022-09-17T01:55:37.892Z,12.07
2022-09-17T01:58:10.471Z,12.10
2022-09-17T02:00:42.474Z,12.10
2022-09-17T02:03:15.404Z,12.04
2022-09-17T02:06:03.516Z,12.10
2022-09-17T02:08:37.164Z,12.13
2022-09-17T02:11:09.580Z,12.12
2022-09-17T02:13:56.551Z,12.17
2022-09-17T02:16:28.914Z,12.09
2022-09-17T02:19:16.799Z,12.16
2022-09-17T02:21:53.430Z,12.16
2022-09-17T02:24:25.696Z,12.14
2022-09-17T02:27:02.175Z,12.10
2022-09-17T02:29:36.179Z,12.13
2022-09-17T02:32:03.586Z,12.06
2022-09-17T02:34:31.658Z,12.12
2022-09-17T02:36:59.413Z,12.11
2022-09-17T02:39:27.078Z,12.06
2022-09-17T02:42:24.192Z,12.07
2022-09-17T02:45:12.422Z,12.01
2022-09-17T02:48:22.161Z,12.04
2022-09-17T02:51:08.317Z,12.10
2022-09-17T02:53:37.771Z,12.04
2022-09-17T02:56:18.055Z,12.05
2022-09-17T02:58:54.880Z,12.06
2022-09-17T03:01:32.694Z,12.06
2022-09-17T03:04:00.157Z,12.07
2022-09-17T03:06:27.451Z,12.06
2022-09-17T03:08:53.975Z,12.07
2022-09-17T03:11:21.610Z,12.02
2022-09-17T03:13:48.679Z,12.00
2022-09-17T03:16:15.255Z,12.08
2022-09-17T03:18:41.765Z,12.01
2022-09-17T03:21:12.644Z,12.12
2022-09-17T03:23:39.885Z,12.05
2022-09-17T03:26:06.369Z,12.06
2022-09-17T03:28:32.781Z,12.05
2022-09-17T03:30:59.681Z,12.00
2022-09-17T03:33:28.365Z,12.08
2022-09-17T03:35:54.915Z,12.06
2022-09-17T03:38:21.758Z,12.00
2022-09-17T03:41:09.928Z,11.99
2022-09-17T03:43:36.658Z,12.06
2022-09-17T03:46:03.631Z,12.05
2022-09-17T03:48:30.780Z,12.14
2022-09-17T03:50:57.223Z,12.14
2022-09-17T03:53:23.982Z,12.10
2022-09-17T03:55:50.600Z,12.14
2022-09-17T03:58:17.163Z,12.12
2022-09-17T04:00:43.741Z,12.12
2022-09-17T04:03:10.341Z,12.13
2022-09-17T04:05:37.040Z,12.15
2022-09-17T04:08:03.447Z,12.12
2022-09-17T04:10:30.029Z,12.11
2022-09-17T04:12:56.565Z,12.11
2022-09-17T04:15:23.358Z,12.13
2022-09-17T04:17:49.848Z,12.05
2022-09-17T04:20:16.412Z,12.11
2022-09-17T04:22:42.843Z,12.04
2022-09-17T04:25:11.554Z,12.07
2022-09-17T04:27:38.012Z,12.05
2022-09-17T04:30:04.863Z,11.93
2022-09-17T04:32:31.359Z,11.91
2022-09-17T04:34:57.998Z,11.91
2022-09-17T04:37:25.663Z,11.86
2022-09-17T04:39:52.626Z,11.92
2022-09-17T04:42:19.300Z,11.83
2022-09-17T04:44:46.980Z,11.84
2022-09-17T04:47:13.641Z,11.78
2022-09-17T04:49:40.239Z,11.75
2022-09-17T04:52:06.892Z,11.76
2022-09-17T04:54:33.397Z,11.70
2022-09-17T04:57:00.482Z,11.77
2022-09-17T04:59:29.167Z,11.67
2022-09-17T05:01:55.659Z,11.73
2022-09-17T05:04:22.505Z,11.72
2022-09-17T05:06:49.607Z,11.67
2022-09-17T05:09:24.314Z,11.79
2022-09-17T05:11:50.776Z,11.78
2022-09-17T05:14:19.216Z,11.80
2022-09-17T05:16:48.721Z,11.83
2022-09-17T05:19:15.274Z,11.81
2022-09-17T05:21:44.893Z,11.89
2022-09-17T05:24:11.487Z,11.84
2022-09-17T05:26:37.838Z,11.89
2022-09-17T05:29:04.972Z,11.92
2022-09-17T05:31:31.780Z,11.80
2022-09-17T05:33:58.961Z,11.79
2022-09-17T05:36:25.557Z,11.81
2022-09-17T05:38:52.130Z,11.88
2022-09-17T05:41:18.731Z,11.86
2022-09-17T05:43:45.281Z,11.92
2022-09-17T05:46:11.834Z,11.94
2022-09-17T05:48:45.587Z,11.86
2022-09-17T05:51:12.586Z,11.93
2022-09-17T05:53:39.196Z,12.02
2022-09-17T05:56:05.769Z,11.92
2022-09-17T05:58:34.388Z,12.02
2022-09-17T06:01:01.659Z,12.00
2022-09-17T06:03:29.515Z,12.06
2022-09-17T06:05:58.501Z,11.95
2022-09-17T06:08:26.295Z,11.99
2022-09-17T06:10:52.961Z,12.07
2022-09-17T06:13:20.524Z,12.13
2022-09-17T06:15:55.323Z,12.25
2022-09-17T06:18:21.916Z,12.28
2022-09-17T06:21:02.739Z,12.17
2022-09-17T06:23:35.856Z,12.05
2022-09-17T06:26:03.438Z,12.07
2022-09-17T06:28:30.486Z,11.94
2022-09-17T06:31:05.496Z,11.94
2022-09-17T06:33:32.952Z,12.02
2022-09-17T06:36:01.115Z,12.11
2022-09-17T06:38:28.243Z,12.11
2022-09-17T06:40:54.799Z,12.20
2022-09-17T06:43:22.017Z,12.38
2022-09-17T06:46:00.208Z,12.36
2022-09-17T06:48:29.495Z,12.33
2022-09-17T06:50:56.607Z,12.46
2022-09-17T06:53:24.296Z,12.51
2022-09-17T06:55:51.989Z,12.58
2022-09-17T06:58:18.779Z,12.50
2022-09-17T07:00:45.681Z,12.34
2022-09-17T07:03:12.085Z,12.22
2022-09-17T07:05:38.722Z,12.04
2022-09-17T07:08:07.334Z,12.07
2022-09-17T07:10:33.839Z,11.92
2022-09-17T07:13:00.480Z,11.96
2022-09-17T07:15:29.051Z,11.84
2022-09-17T07:17:55.562Z,11.80
2022-09-17T07:20:22.174Z,11.74
2022-09-17T07:22:57.237Z,11.72
2022-09-17T07:25:25.019Z,11.75
2022-09-17T07:27:51.673Z,11.78
2022-09-17T07:30:18.982Z,11.86
2022-09-17T07:32:45.501Z,11.96
2022-09-17T07:35:12.694Z,11.92
2022-09-17T07:37:39.245Z,12.11
2022-09-17T07:40:07.240Z,12.13
2022-09-17T07:42:34.154Z,12.26
2022-09-17T07:45:02.364Z,12.35
2022-09-17T07:47:29.122Z,12.36
2022-09-17T07:49:55.702Z,12.52
2022-09-17T07:52:22.285Z,12.62
2022-09-17T07:54:48.626Z,12.66
2022-09-17T07:57:15.122Z,12.96
2022-09-17T07:59:41.533Z,13.04
2022-09-17T08:02:14.453Z,12.85
2022-09-17T08:04:44.122Z,12.87
2022-09-17T08:07:13.849Z,12.87
2022-09-17T08:09:40.268Z,12.70
2022-09-17T08:12:07.016Z,12.72
2022-09-17T08:14:33.550Z,12.61
2022-09-17T08:17:01.494Z,12.83
2022-09-17T08:19:31.132Z,12.86
2022-09-17T08:22:01.241Z,12.97
2022-09-17T08:24:27.800Z,13.23
2022-09-17T08:26:54.258Z,13.54
2022-09-17T08:29:20.630Z,13.54
2022-09-17T08:31:47.115Z,13.46
2022-09-17T08:34:14.706Z,13.67
2022-09-17T08:36:41.100Z,13.41
2022-09-17T08:39:08.145Z,13.59
2022-09-17T08:41:43.894Z,13.69
2022-09-17T08:44:17.342Z,13.76
2022-09-17T08:46:50.806Z,13.71
2022-09-17T08:49:40.114Z,14.03
2022-09-17T08:52:18.696Z,14.40
2022-09-17T08:54:53.873Z,14.53
2022-09-17T08:57:36.991Z,14.76
2022-09-17T09:00:10.413Z,14.50
2022-09-17T09:02:40.469Z,14.81
2022-09-17T09:05:17.120Z,14.84
2022-09-17T09:07:48.764Z,14.68
2022-09-17T09:10:41.514Z,14.50
2022-09-17T09:13:09.336Z,14.23
2022-09-17T09:15:44.739Z,14.45
2022-09-17T09:18:25.514Z,14.79
2022-09-17T09:21:30.098Z,15.22
2022-09-17T09:23:59.045Z,16.63
2022-09-17T09:26:40.563Z,18.71
2022-09-17T09:29:10.054Z,19.41
2022-09-17T09:31:42.285Z,17.91
2022-09-17T09:34:09.477Z,18.06
2022-09-17T09:36:37.589Z,17.85
2022-09-17T09:39:25.452Z,18.10
2022-09-17T09:42:19.694Z,18.55
2022-09-17T09:44:46.108Z,17.92
2022-09-17T09:47:34.833Z,17.01
2022-09-17T09:51:04.578Z,16.02
2022-09-17T09:53:41.805Z,15.28
2022-09-17T09:56:28.362Z,15.12
2022-09-17T09:58:54.829Z,15.57
2022-09-17T10:01:21.437Z,16.97
2022-09-17T10:03:49.491Z,19.06
2022-09-17T10:06:17.021Z,20.38
2022-09-17T10:08:49.583Z,19.90
2022-09-17T10:11:28.276Z,19.22
2022-09-17T10:14:16.012Z,20.00
2022-09-17T10:16:42.423Z,18.78
2022-09-17T10:19:08.898Z,17.97
2022-09-17T10:21:40.644Z,17.37
2022-09-17T10:24:30.227Z,16.30
2022-09-17T10:27:05.841Z,16.08
2022-09-17T10:29:34.550Z,16.69
2022-09-17T10:32:02.673Z,17.91
2022-09-17T10:34:30.930Z,19.74
2022-09-17T10:36:57.436Z,21.73
2022-09-17T10:39:26.949Z,21.82
2022-09-17T10:42:05.123Z,23.00
2022-09-17T10:44:55.648Z,22.20
2022-09-17T10:47:36.670Z,19.73
2022-09-17T10:50:28.632Z,18.52
2022-09-17T10:52:57.148Z,18.36
2022-09-17T10:55:44.263Z,19.45
2022-09-17T10:58:28.347Z,19.36
2022-09-17T11:01:17.643Z,18.75
2022-09-17T11:04:10.299Z,18.96
2022-09-17T11:06:56.515Z,17.77
2022-09-17T11:09:38.180Z,19.82
2022-09-17T11:12:27.944Z,21.68
2022-09-17T11:15:28.769Z,22.53
2022-09-17T11:18:34.335Z,21.85
2022-09-17T11:21:28.754Z,21.86
2022-09-17T11:24:08.829Z,22.10
2022-09-17T11:26:45.076Z,21.57
2022-09-17T11:29:29.670Z,20.66
2022-09-17T11:32:44.177Z,20.61
2022-09-17T11:35:21.249Z,20.38
2022-09-17T11:38:18.436Z,19.75
2022-09-17T11:40:48.271Z,18.18
2022-09-17T11:43:20.836Z,16.04
2022-09-17T11:45:55.478Z,14.69
2022-09-17T11:48:24.863Z,14.20
2022-09-17T11:51:00.329Z,13.78
2022-09-17T11:53:47.415Z,13.39
2022-09-17T11:56:30.961Z,13.44
2022-09-17T11:59:03.276Z,13.54
2022-09-17T12:01:39.028Z,13.78
2022-09-17T12:04:22.741Z,13.96
2022-09-17T12:06:54.755Z,14.59
2022-09-17T12:09:25.964Z,15.22
2022-09-17T12:12:37.886Z,15.53
2022-09-17T12:15:13.150Z,15.44
2022-09-17T12:17:43.333Z,14.81
2022-09-17T12:20:30.195Z,14.38
2022-09-17T12:22:58.514Z,14.29
2022-09-17T12:25:26.485Z,14.22
2022-09-17T12:27:57.108Z,14.13
2022-09-17T12:30:28.627Z,14.14
2022-09-17T12:33:13.337Z,13.97
2022-09-17T12:36:05.924Z,14.09
2022-09-17T12:38:53.873Z,14.10
2022-09-17T12:41:40.825Z,14.45
2022-09-17T12:44:35.777Z,15.19
2022-09-17T12:47:22.149Z,16.40
2022-09-17T12:50:26.701Z,16.63
2022-09-17T12:53:10.086Z,17.28
2022-09-17T12:55:41.195Z,17.22
2022-09-17T12:58:16.706Z,17.81
2022-09-17T13:00:48.416Z,18.46
2022-09-17T13:03:27.814Z,18.03
2022-09-17T13:06:04.172Z,16.97
2022-09-17T13:09:02.660Z,15.74
2022-09-17T13:11:35.886Z,15.60
2022-09-17T13:14:27.054Z,15.62
2022-09-17T13:17:19.382Z,15.24
2022-09-17T13:20:06.180Z,14.88
2022-09-17T13:22:34.205Z,14.68
2022-09-17T13:25:04.958Z,14.37
2022-09-17T13:27:31.685Z,14.31
2022-09-17T13:29:58.824Z,14.44
2022-09-17T13:32:34.703Z,14.45
2022-09-17T13:35:10.202Z,14.48
2022-09-17T13:37:39.007Z,14.71
2022-09-17T13:40:07.444Z,14.71
2022-09-17T13:42:46.218Z,14.90
2022-09-17T13:45:17.273Z,15.24
2022-09-17T13:47:54.102Z,15.73
2022-09-17T13:50:34.099Z,16.20
2022-09-17T13:53:16.460Z,17.18
2022-09-17T13:55:51.244Z,18.22
2022-09-17T13:58:23.791Z,18.69
2022-09-17T14:01:00.773Z,18.55
2022-09-17T14:03:56.530Z,18.83
2022-09-17T14:06:22.952Z,18.69
2022-09-17T14:08:51.848Z,18.27
2022-09-17T14:11:26.712Z,18.11
2022-09-17T14:14:05.330Z,18.48
2022-09-17T14:16:37.092Z,18.34
2022-09-17T14:19:15.860Z,18.42
2022-09-17T14:21:56.922Z,18.28
2022-09-17T14:24:33.832Z,18.47
2022-09-17T14:27:29.925Z,17.97
2022-09-17T14:30:16.979Z,17.58
2022-09-17T14:32:54.892Z,17.84
2022-09-17T14:35:42.843Z,17.72
2022-09-17T14:38:33.696Z,17.68
2022-09-17T14:41:04.528Z,17.45
2022-09-17T14:43:48.438Z,17.31
2022-09-17T14:46:39.520Z,17.38
2022-09-17T14:49:41.535Z,17.08
2022-09-17T14:52:24.940Z,16.56
2022-09-17T14:55:11.332Z,16.42
2022-09-17T14:57:38.273Z,16.22
2022-09-17T15:00:10.919Z,16.21
2022-09-17T15:02:38.464Z,15.98
2022-09-17T15:05:30.196Z,15.75
2022-09-17T15:08:20.620Z,15.65
2022-09-17T15:11:02.008Z,15.50
2022-09-17T15:13:30.753Z,15.33
2022-09-17T15:16:07.729Z,15.40
2022-09-17T15:18:40.538Z,15.58
2022-09-17T15:21:35.266Z,15.77
2022-09-17T15:24:12.710Z,15.69
2022-09-17T15:26:42.044Z,15.93
2022-09-17T15:29:13.801Z,16.01
2022-09-17T15:31:41.185Z,16.17
2022-09-17T15:34:11.176Z,15.98
2022-09-17T15:36:37.598Z,16.05
2022-09-17T15:39:33.125Z,16.02
2022-09-17T15:41:59.456Z,15.90
2022-09-17T15:44:31.055Z,15.93
2022-09-17T15:47:36.763Z,15.76
2022-09-17T15:50:15.763Z,15.50
2022-09-17T15:52:42.471Z,15.66
2022-09-17T15:55:38.295Z,15.72
2022-09-17T15:58:17.149Z,15.97
2022-09-17T16:00:43.517Z,15.99
2022-09-17T16:03:43.453Z,15.92
2022-09-17T16:06:19.188Z,15.76
2022-09-17T16:08:47.481Z,15.80
2022-09-17T16:11:17.180Z,15.67
2022-09-17T16:13:46.388Z,15.47
2022-09-17T16:16:18.482Z,15.23
2022-09-17T16:18:45.030Z,15.18
2022-09-17T16:21:12.245Z,14.88
2022-09-17T16:23:38.769Z,14.78
2022-09-17T16:26:05.771Z,14.56
2022-09-17T16:28:32.282Z,14.64
2022-09-17T16:30:59.885Z,14.44
2022-09-17T16:33:28.140Z,14.39
2022-09-17T16:35:58.696Z,14.28
2022-09-17T16:38:26.281Z,14.23
2022-09-17T16:40:52.715Z,14.09
2022-09-17T16:43:19.079Z,14.15
2022-09-17T16:45:58.991Z,14.19
2022-09-17T16:48:26.619Z,14.20
2022-09-17T16:50:52.966Z,14.02
2022-09-17T16:53:19.454Z,13.60
2022-09-17T16:55:45.850Z,13.22
2022-09-17T16:58:12.203Z,13.17
2022-09-17T17:00:42.625Z,12.96
2022-09-17T17:03:12.941Z,12.82
2022-09-17T17:05:40.099Z,12.71
2022-09-17T17:08:07.806Z,12.59
2022-09-17T17:10:35.009Z,12.53
2022-09-17T17:13:01.716Z,12.41
2022-09-17T17:15:28.025Z,12.32
2022-09-17T17:17:54.353Z,12.28
2022-09-17T17:20:20.687Z,12.25
2022-09-17T17:22:47.074Z,12.21
2022-09-17T17:25:14.597Z,12.17
2022-09-17T17:27:42.076Z,12.11
2022-09-17T17:30:09.294Z,11.98
2022-09-17T17:32:36.768Z,11.87
2022-09-17T17:35:04.106Z,11.73
2022-09-17T17:37:30.567Z,11.67
2022-09-17T17:39:58.137Z,11.65
2022-09-17T17:42:24.527Z,11.65
2022-09-17T17:44:50.912Z,11.82
2022-09-17T17:47:17.284Z,11.94
2022-09-17T17:49:44.538Z,12.05
2022-09-17T17:52:10.879Z,12.17
2022-09-17T17:54:37.184Z,12.25
2022-09-17T17:57:03.690Z,12.38
2022-09-17T17:59:30.021Z,12.37
2022-09-17T18:01:56.523Z,12.38
2022-09-17T18:04:23.046Z,12.41
2022-09-17T18:06:49.615Z,12.40
2022-09-17T18:09:15.963Z,12.38
2022-09-17T18:11:42.317Z,12.33
2022-09-17T18:14:12.218Z,12.22
2022-09-17T18:16:38.901Z,12.18
2022-09-17T18:19:05.396Z,12.20
2022-09-17T18:21:31.845Z,12.12
2022-09-17T18:23:58.244Z,12.09
2022-09-17T18:26:26.786Z,12.14
2022-09-17T18:28:53.482Z,12.07
2022-09-17T18:31:31.703Z,12.12
2022-09-17T18:34:07.416Z,12.08
2022-09-17T18:36:35.373Z,12.15
2022-09-17T18:39:29.980Z,12.02
2022-09-17T18:41:51.287Z,11.95
2022-09-17T18:44:20.622Z,11.83
2022-09-17T18:46:48.114Z,11.73
2022-09-17T18:49:14.614Z,11.66
2022-09-17T18:51:41.227Z,11.58
2022-09-17T18:54:09.982Z,11.56
2022-09-17T18:56:37.225Z,11.49
2022-09-17T18:59:07.950Z,11.43
2022-09-17T19:01:35.413Z,11.35
2022-09-17T19:04:02.830Z,11.42
2022-09-17T19:06:30.443Z,11.43
2022-09-17T19:09:00.206Z,11.44
2022-09-17T19:11:27.347Z,11.48
